Time;durP1;ratioP1;P1;durP2;ratioP2;P2;SDS_P1;SDS_P2;PMS_P1;PMS_P2;Temp;Humidity;BMP_temperature;BMP_pressure;BME280_temperature;BME280_humidity;BME280_pressure;Samples;Min_cycle;Max_cycle;Signal;HPM_P1;HPM_P2
2023/04/25 00:00:37;;;;;;;1.73;1.63;;;11.40;69.70;11.40;95769.00;;;;5093962;28;20640;-82
2023/04/25 00:03:05;;;;;;;1.50;1.40;;;11.40;69.70;11.40;95781.00;;;;5079325;28;20216;-83
2023/04/25 00:05:33;;;;;;;1.80;1.70;;;11.40;69.80;11.40;95775.00;;;;5093073;28;20849;-82
2023/04/25 00:08:01;;;;;;;1.77;1.67;;;11.40;69.90;11.40;95775.00;;;;5091927;28;20201;-82
2023/04/25 00:10:28;;;;;;;1.80;1.70;;;11.40;70.10;11.40;95780.00;;;;5093448;28;20769;-82
2023/04/25 00:12:57;;;;;;;1.67;1.57;;;11.40;70.80;11.40;95777.00;;;;5093897;28;20306;-83
2023/04/25 00:15:25;;;;;;;1.60;1.50;;;11.40;70.10;11.40;95773.00;;;;5092188;28;20279;-83
2023/04/25 00:17:52;;;;;;;1.40;1.30;;;11.40;70.10;11.40;95772.00;;;;5093862;28;20264;-81
2023/04/25 00:20:20;;;;;;;1.77;1.40;;;11.40;70.10;11.40;95780.00;;;;5089964;28;20202;-83
2023/04/25 00:22:47;;;;;;;2.10;1.60;;;11.40;70.10;11.40;95776.00;;;;5094212;28;20210;-82
2023/04/25 00:25:16;;;;;;;1.30;1.20;;;11.40;70.10;11.40;95776.00;;;;5092857;28;20199;-81
2023/04/25 00:27:43;;;;;;;2.63;1.70;;;11.40;70.10;11.50;95777.00;;;;5096511;28;20195;-82
2023/04/25 00:30:13;;;;;;;1.73;1.63;;;11.40;70.10;11.50;95777.00;;;;5096318;28;20234;-81
2023/04/25 00:32:40;;;;;;;1.63;1.53;;;11.50;70.20;11.50;95775.00;;;;5098436;28;20231;-83
2023/04/25 00:35:09;;;;;;;1.60;1.50;;;11.50;70.40;11.60;95775.00;;;;5097246;28;20195;-82
2023/04/25 00:37:36;;;;;;;1.50;1.40;;;11.50;70.60;11.60;95768.00;;;;5096742;28;20298;-83
2023/04/25 00:40:07;;;;;;;1.50;1.40;;;11.50;70.70;11.60;95768.00;;;;5096565;28;20198;-82
2023/04/25 00:42:37;;;;;;;1.60;1.50;;;11.50;70.50;11.60;95780.00;;;;5094957;28;20309;-82
2023/04/25 00:45:08;;;;;;;2.60;1.87;;;11.60;70.50;11.70;95787.00;;;;5094915;28;20200;-83
2023/04/25 00:47:37;;;;;;;1.60;1.50;;;11.60;70.50;11.70;95776.00;;;;5090063;28;20203;-82
2023/04/25 00:50:07;;;;;;;2.07;1.57;;;11.60;70.70;11.70;95776.00;;;;5095446;28;20229;-85
2023/04/25 00:52:35;;;;;;;2.33;1.60;;;11.60;70.70;11.70;95779.00;;;;5093960;28;20707;-81
2023/04/25 00:55:02;;;;;;;1.70;1.60;;;11.70;70.80;11.80;95772.00;;;;5094292;28;20278;-82
2023/04/25 00:57:29;;;;;;;1.50;1.40;;;11.70;70.80;11.80;95773.00;;;;5096196;28;20310;-82
2023/04/25 00:59:59;;;;;;;1.67;1.43;;;11.70;70.90;11.80;95769.00;;;;5089656;28;20258;-86
2023/04/25 01:02:28;;;;;;;1.40;1.30;;;11.80;71.00;11.90;95762.00;;;;5096922;28;20195;-84
2023/04/25 01:04:55;;;;;;;1.50;1.40;;;11.80;71.00;11.90;95760.00;;;;5097204;28;20214;-81
2023/04/25 01:07:22;;;;;;;1.43;1.30;;;11.80;71.10;11.90;95765.00;;;;5088354;28;20205;-83
2023/04/25 01:09:52;;;;;;;1.73;1.20;;;11.90;71.00;12.00;95763.00;;;;5087658;28;20227;-84
2023/04/25 01:12:22;;;;;;;1.93;1.57;;;11.90;71.00;12.00;95765.00;;;;5096227;28;20245;-83
2023/04/25 01:14:49;;;;;;;1.27;1.17;;;11.90;70.90;12.00;95764.00;;;;5095967;28;20233;-84
2023/04/25 01:17:18;;;;;;;1.23;1.13;;;12.00;71.00;12.00;95766.00;;;;5078326;28;20254;-81
2023/04/25 01:19:48;;;;;;;2.67;1.17;;;12.00;70.80;12.10;95772.00;;;;5096715;28;20781;-82
2023/04/25 01:22:17;;;;;;;1.60;1.50;;;12.00;70.80;12.10;95770.00;;;;5097940;28;20203;-81
2023/04/25 01:24:45;;;;;;;1.70;1.17;;;12.00;70.70;12.10;95764.00;;;;5098375;28;20195;-85
2023/04/25 01:27:13;;;;;;;2.03;1.60;;;12.10;70.70;12.10;95768.00;;;;5097456;28;20205;-81
2023/04/25 01:29:41;;;;;;;1.20;1.20;;;12.10;70.70;12.10;95765.00;;;;5096540;28;20191;-82
2023/04/25 01:32:10;;;;;;;1.50;1.40;;;12.10;70.60;12.10;95765.00;;;;5095182;28;20675;-82
2023/04/25 01:34:37;;;;;;;1.47;1.37;;;12.10;70.80;12.10;95764.00;;;;5097949;28;20198;-83
2023/04/25 01:37:04;;;;;;;1.53;1.33;;;12.10;70.80;12.10;95768.00;;;;5095860;28;20688;-83
2023/04/25 01:39:33;;;;;;;1.10;1.10;;;12.10;70.60;12.10;95767.00;;;;5095042;28;20191;-82
2023/04/25 01:42:01;;;;;;;1.40;1.30;;;12.10;70.50;12.10;95753.00;;;;5096110;28;20201;-84
2023/04/25 01:44:29;;;;;;;2.07;1.30;;;12.10;70.60;12.10;95757.00;;;;5094140;28;20284;-82
2023/04/25 01:46:56;;;;;;;1.30;1.20;;;12.10;70.80;12.10;95762.00;;;;5094813;28;20698;-82
2023/04/25 01:49:23;;;;;;;1.50;1.40;;;12.10;70.70;12.10;95750.00;;;;5089514;28;20214;-85
2023/04/25 01:51:51;;;;;;;1.40;1.30;;;12.10;70.70;12.10;95752.00;;;;5094992;28;20199;-84
2023/04/25 01:54:20;;;;;;;1.50;1.40;;;12.10;70.80;12.20;95756.00;;;;5095910;28;20221;-81
2023/04/25 01:56:53;;;;;;;1.30;1.20;;;12.10;70.90;12.20;95751.00;;;;5095669;28;20207;-82
2023/04/25 01:59:21;;;;;;;1.43;1.20;;;12.10;70.90;12.20;95747.00;;;;5094397;28;20195;-84
2023/04/25 02:01:49;;;;;;;1.40;1.30;;;12.10;71.00;12.20;95743.00;;;;5108266;28;20275;-82
2023/04/25 02:04:16;;;;;;;1.47;1.37;;;12.20;70.90;12.20;95740.00;;;;5077529;28;20264;-81
2023/04/25 02:06:43;;;;;;;1.93;1.60;;;12.10;70.80;12.10;95740.00;;;;5096364;28;20646;-82
2023/04/25 02:09:10;;;;;;;2.60;1.57;;;12.10;70.70;12.10;95742.00;;;;5093787;28;20196;-81
2023/04/25 02:11:37;;;;;;;1.13;1.10;;;12.10;70.50;12.10;95746.00;;;;5098200;28;20286;-81
2023/04/25 02:14:06;;;;;;;1.30;1.20;;;12.10;70.50;12.00;95740.00;;;;5096783;28;20306;-82
2023/04/25 02:16:33;;;;;;;1.60;1.50;;;12.10;70.50;12.00;95738.00;;;;5098303;28;20227;-82
2023/04/25 02:19:00;;;;;;;1.63;1.30;;;12.10;70.50;12.00;95739.00;;;;5096333;28;20219;-81
2023/04/25 02:21:28;;;;;;;1.60;1.37;;;12.00;70.60;11.90;95736.00;;;;5097250;28;20267;-82
2023/04/25 02:23:55;;;;;;;2.13;1.60;;;12.00;70.50;11.90;95737.00;;;;5079570;28;20211;-83
2023/04/25 02:26:24;;;;;;;1.33;1.23;;;12.00;70.30;11.80;95744.00;;;;5088818;28;20183;-82
2023/04/25 02:28:51;;;;;;;1.60;1.47;;;11.90;70.20;11.80;95741.00;;;;5096478;28;20195;-82
2023/04/25 02:31:20;;;;;;;1.53;1.20;;;11.90;70.40;11.80;95737.00;;;;5097486;28;20195;-83
2023/04/25 02:33:48;;;;;;;2.10;1.57;;;11.90;70.60;11.80;95724.00;;;;5090069;28;20254;-83
2023/04/25 02:36:16;;;;;;;1.23;1.17;;;11.80;70.60;11.80;95717.00;;;;5094571;28;20618;-82
2023/04/25 02:38:43;;;;;;;1.50;1.40;;;11.80;70.70;11.70;95720.00;;;;5096298;28;20847;-82
2023/04/25 02:41:10;;;;;;;1.30;1.20;;;11.80;70.80;11.70;95733.00;;;;5096344;28;20209;-82
2023/04/25 02:43:37;;;;;;;1.40;1.23;;;11.80;71.00;11.70;95731.00;;;;5096326;28;20219;-84
2023/04/25 02:46:05;;;;;;;1.53;1.43;;;11.70;71.00;11.70;95732.00;;;;5096624;28;20234;-81
2023/04/25 02:48:33;;;;;;;1.50;1.40;;;11.70;71.10;11.70;95731.00;;;;5095200;28;20209;-81
2023/04/25 02:51:01;;;;;;;1.40;1.30;;;11.70;71.40;11.70;95729.00;;;;5095218;28;20191;-81
2023/04/25 02:53:28;;;;;;;1.30;1.20;;;11.70;71.40;11.70;95725.00;;;;5095307;28;20247;-81
2023/04/25 02:55:58;;;;;;;1.50;1.40;;;11.70;71.50;11.70;95730.00;;;;5096410;28;20235;-81
2023/04/25 02:58:25;;;;;;;1.57;1.47;;;11.70;71.60;11.70;95717.00;;;;5087122;28;20596;-81
2023/04/25 03:00:52;;;;;;;1.57;1.30;;;11.70;71.50;11.60;95725.00;;;;5095777;28;20288;-82
2023/04/25 03:03:21;;;;;;;1.60;1.50;;;11.70;71.50;11.60;95726.00;;;;5095867;28;20760;-81
2023/04/25 03:05:50;;;;;;;2.67;1.50;;;11.60;71.50;11.60;95720.00;;;;5094129;28;20890;-81
2023/04/25 03:08:18;;;;;;;1.40;1.30;;;11.60;71.70;11.60;95718.00;;;;5094494;28;20199;-82
2023/04/25 03:10:46;;;;;;;2.40;1.67;;;11.60;71.90;11.60;95715.00;;;;5092173;28;20237;-82
2023/04/25 03:13:13;;;;;;;1.30;1.23;;;11.60;72.00;11.70;95703.00;;;;5088048;28;20560;-81
2023/04/25 03:15:40;;;;;;;1.60;1.50;;;11.60;72.10;11.70;95718.00;;;;5091226;28;20188;-82
2023/04/25 03:18:07;;;;;;;1.97;1.80;;;11.60;72.20;11.70;95711.00;;;;5093439;28;20212;-85
2023/04/25 03:20:34;;;;;;;1.60;1.50;;;11.70;72.30;11.70;95714.00;;;;5090695;28;20202;-82
2023/04/25 03:23:03;;;;;;;1.87;1.33;;;11.70;72.40;11.70;95697.00;;;;5090135;28;20221;-82
2023/04/25 03:25:31;;;;;;;1.33;1.23;;;11.70;72.40;11.70;95706.00;;;;5088400;28;20191;-83
2023/04/25 03:27:58;;;;;;;1.50;1.40;;;11.70;72.50;11.70;95703.00;;;;5092516;28;20286;-81
2023/04/25 03:30:25;;;;;;;1.60;1.50;;;11.70;72.60;11.80;95711.00;;;;5094677;28;20287;-82
2023/04/25 03:32:53;;;;;;;1.50;1.40;;;11.70;72.70;11.80;95708.00;;;;5093544;28;20306;-84
2023/04/25 03:35:20;;;;;;;1.63;1.17;;;11.70;72.70;11.80;95716.00;;;;5094352;28;20195;-83
2023/04/25 03:37:47;;;;;;;1.57;1.47;;;11.80;72.90;11.80;95715.00;;;;5093310;28;20208;-82
2023/04/25 03:40:15;;;;;;;1.70;1.60;;;11.80;73.00;11.80;95707.00;;;;5094663;28;20282;-82
2023/04/25 03:42:43;;;;;;;2.07;1.60;;;11.80;73.20;11.80;95708.00;;;;5094956;28;20307;-82
2023/04/25 03:45:10;;;;;;;1.53;1.40;;;11.80;73.50;11.90;95711.00;;;;5096799;28;20283;-82
2023/04/25 03:47:38;;;;;;;1.33;1.23;;;11.80;73.60;11.90;95714.00;;;;5095375;28;20218;-81
2023/04/25 03:50:06;;;;;;;1.50;1.40;;;11.80;73.60;11.90;95696.00;;;;5090129;28;20219;-82
2023/04/25 03:52:33;;;;;;;2.43;1.50;;;11.90;73.60;11.90;95690.00;;;;5096231;28;20662;-85
2023/04/25 03:55:01;;;;;;;1.87;1.53;;;11.90;73.70;11.90;95691.00;;;;5094725;28;20195;-82
2023/04/25 03:57:29;;;;;;;1.70;1.60;;;11.90;73.70;11.90;95697.00;;;;5095047;28;20747;-81
2023/04/25 03:59:56;;;;;;;1.60;1.40;;;11.90;73.60;11.90;95695.00;;;;5096994;28;20719;-82
2023/04/25 04:02:24;;;;;;;2.27;1.50;;;11.90;73.60;11.90;95697.00;;;;5094541;28;20255;-82
2023/04/25 04:04:51;;;;;;;1.93;1.80;;;11.90;73.70;11.90;95702.00;;;;5105607;28;20251;-82
2023/04/25 04:07:18;;;;;;;1.60;1.40;;;11.90;73.90;11.90;95695.00;;;;5102400;28;20227;-82
2023/04/25 04:09:45;;;;;;;1.90;1.80;;;11.90;74.00;11.90;95699.00;;;;5093026;28;20282;-82
2023/04/25 04:12:13;;;;;;;1.43;1.33;;;11.90;73.90;11.90;95704.00;;;;5092674;28;20209;-84
2023/04/25 04:14:41;;;;;;;4.23;1.70;;;11.90;73.80;11.90;95698.00;;;;5092795;28;20626;-82
2023/04/25 04:17:09;;;;;;;1.90;1.60;;;11.90;73.80;11.90;95706.00;;;;5091110;28;20191;-83
2023/04/25 04:19:36;;;;;;;2.47;1.50;;;11.90;73.90;11.90;95707.00;;;;5092293;28;20215;-82
2023/04/25 04:22:04;;;;;;;2.20;1.60;;;11.90;73.80;11.90;95703.00;;;;5091067;28;20195;-81
2023/04/25 04:24:31;;;;;;;1.70;1.60;;;12.00;74.10;11.90;95700.00;;;;5090626;28;20211;-82
2023/04/25 04:26:58;;;;;;;1.57;1.47;;;12.00;74.00;11.90;95710.00;;;;5091756;28;20203;-81
2023/04/25 04:29:26;;;;;;;1.60;1.43;;;12.00;74.10;11.90;95703.00;;;;5090580;28;20202;-82
2023/04/25 04:31:55;;;;;;;1.80;1.70;;;12.00;74.10;12.00;95702.00;;;;5088785;28;20207;-85
2023/04/25 04:34:26;;;;;;;1.73;1.60;;;12.00;74.10;12.00;95714.00;;;;5090259;28;20221;-86
2023/04/25 04:36:54;;;;;;;2.30;1.53;;;12.00;74.20;12.10;95711.00;;;;5088890;28;20192;-85
2023/04/25 04:39:22;;;;;;;2.33;1.67;;;12.10;74.30;12.20;95709.00;;;;5095046;28;20219;-84
2023/04/25 04:41:50;;;;;;;1.70;1.60;;;12.10;74.20;12.30;95706.00;;;;5092451;28;20648;-85
2023/04/25 04:44:18;;;;;;;1.97;1.30;;;12.10;74.10;12.30;95709.00;;;;5091666;28;20657;-86
2023/04/25 04:46:46;;;;;;;1.50;1.40;;;12.10;74.10;12.40;95709.00;;;;5091339;28;20253;-87
2023/04/25 04:49:15;;;;;;;1.60;1.47;;;12.10;74.10;12.40;95716.00;;;;5089737;28;20733;-86
2023/04/25 04:51:44;;;;;;;1.60;1.50;;;12.20;74.10;12.50;95717.00;;;;5083508;28;20201;-86
2023/04/25 04:54:11;;;;;;;1.30;1.20;;;12.30;75.00;12.50;95723.00;;;;5087606;28;20223;-86
2023/04/25 04:56:39;;;;;;;1.53;1.43;;;12.30;74.10;12.50;95724.00;;;;5090778;28;20303;-85
2023/04/25 04:59:07;;;;;;;1.77;1.50;;;12.30;74.00;12.50;95725.00;;;;5089997;28;20238;-87
2023/04/25 05:01:35;;;;;;;1.53;1.40;;;12.40;73.80;12.50;95726.00;;;;5089960;28;20206;-86
2023/04/25 05:04:03;;;;;;;1.77;1.30;;;12.40;73.70;12.60;95729.00;;;;5090242;28;20260;-86
2023/04/25 05:06:32;;;;;;;1.20;1.10;;;12.40;73.70;12.60;95728.00;;;;5089657;28;20202;-87
2023/04/25 05:09:01;;;;;;;1.40;1.30;;;12.40;73.50;12.60;95725.00;;;;5088090;28;20195;-87
2023/04/25 05:11:28;;;;;;;1.30;1.20;;;12.50;73.60;12.60;95724.00;;;;5073528;28;20575;-85
2023/04/25 05:13:55;;;;;;;1.77;1.30;;;12.50;73.50;12.70;95708.00;;;;5081173;28;20226;-86
2023/04/25 05:16:23;;;;;;;1.47;1.37;;;12.50;73.40;12.70;95717.00;;;;5085607;28;20206;-86
2023/04/25 05:18:50;;;;;;;1.03;1.00;;;12.50;73.20;12.70;95715.00;;;;5072235;28;20216;-86
2023/04/25 05:21:17;;;;;;;1.17;0.97;;;12.60;73.30;12.70;95714.00;;;;5088981;28;20200;-89
2023/04/25 05:23:46;;;;;;;1.30;1.20;;;12.60;73.10;12.70;95714.00;;;;5088733;28;20756;-87
2023/04/25 05:26:14;;;;;;;0.70;0.70;;;12.60;73.00;12.80;95709.00;;;;5090230;28;20218;-87
2023/04/25 05:28:42;;;;;;;1.20;1.00;;;12.60;73.10;12.80;95717.00;;;;5092653;28;20773;-87
2023/04/25 05:31:10;;;;;;;1.00;1.00;;;12.70;73.20;12.90;95716.00;;;;5092945;28;20191;-88
2023/04/25 05:33:38;;;;;;;1.20;1.10;;;12.70;73.00;12.90;95709.00;;;;5093757;28;20220;-87
2023/04/25 05:36:07;;;;;;;1.20;1.10;;;12.70;72.90;12.90;95697.00;;;;5076563;28;20195;-86
2023/04/25 05:38:35;;;;;;;2.30;1.60;;;12.80;73.10;12.90;95691.00;;;;5092560;28;20211;-87
2023/04/25 05:41:04;;;;;;;1.40;1.30;;;12.80;73.00;13.00;95701.00;;;;5094802;28;20256;-87
2023/04/25 05:43:31;;;;;;;1.80;1.13;;;12.80;72.90;13.00;95696.00;;;;5075200;28;20215;-87
2023/04/25 05:45:59;;;;;;;1.20;1.10;;;12.90;73.00;13.00;95699.00;;;;5092590;28;20310;-86
2023/04/25 05:48:28;;;;;;;1.00;0.90;;;12.90;72.90;13.00;95695.00;;;;5092647;28;20227;-87
2023/04/25 05:50:55;;;;;;;1.17;1.07;;;12.90;72.90;13.10;95709.00;;;;5093873;28;20651;-86
2023/04/25 05:53:23;;;;;;;1.40;1.30;;;12.90;73.10;13.10;95704.00;;;;5087856;28;20687;-88
2023/04/25 05:55:50;;;;;;;1.27;1.13;;;13.00;73.20;13.20;95700.00;;;;5093249;28;20241;-87
2023/04/25 05:58:19;;;;;;;1.20;1.10;;;13.00;73.20;13.30;95711.00;;;;5092199;28;20223;-86
2023/04/25 06:00:47;;;;;;;1.00;1.00;;;13.00;73.20;13.30;95717.00;;;;5094211;28;20217;-88
2023/04/25 06:03:15;;;;;;;1.50;0.87;;;13.10;73.20;13.40;95714.00;;;;5091955;28;20247;-87
2023/04/25 06:05:43;;;;;;;1.70;1.10;;;13.10;73.10;13.40;95719.00;;;;5087499;28;20188;-87
2023/04/25 06:08:10;;;;;;;1.67;1.10;;;13.10;73.00;13.50;95717.00;;;;5086675;28;20199;-87
2023/04/25 06:10:38;;;;;;;1.53;1.33;;;13.20;72.80;13.50;95717.00;;;;5093203;28;20199;-87
2023/04/25 06:13:06;;;;;;;1.80;1.00;;;13.30;72.80;13.60;95728.00;;;;5095988;28;20250;-86
2023/04/25 06:15:35;;;;;;;1.40;1.10;;;13.30;72.60;13.60;95728.00;;;;5094854;28;20198;-86
2023/04/25 06:18:02;;;;;;;0.80;0.80;;;13.30;72.30;13.60;95722.00;;;;5093285;28;20287;-87
2023/04/25 06:20:30;;;;;;;1.17;1.00;;;13.40;71.80;13.60;95728.00;;;;5094291;28;21021;-86
2023/04/25 06:22:57;;;;;;;1.50;0.90;;;13.40;72.00;13.60;95731.00;;;;5093404;28;20305;-90
2023/04/25 06:25:24;;;;;;;1.30;1.20;;;13.40;71.90;13.60;95724.00;;;;5093908;28;20626;-87
2023/04/25 06:27:52;;;;;;;1.60;0.90;;;13.40;71.80;13.60;95727.00;;;;5084072;28;20211;-86
2023/04/25 06:30:23;;;;;;;1.17;1.07;;;13.40;72.00;13.70;95728.00;;;;5090771;28;20242;-86
2023/04/25 06:32:52;;;;;;;1.07;1.00;;;13.50;72.30;13.80;95725.00;;;;5068327;28;20629;-86
2023/04/25 06:35:20;;;;;;;1.50;1.30;;;13.50;72.50;13.80;95725.00;;;;5084971;28;20191;-91
2023/04/25 06:37:47;;;;;;;1.67;1.10;;;13.50;72.20;13.90;95727.00;;;;5082568;28;20656;-87
2023/04/25 06:40:14;;;;;;;1.47;1.10;;;13.60;72.30;13.90;95740.00;;;;5092592;28;20314;-87
2023/04/25 06:42:42;;;;;;;2.77;1.30;;;13.70;72.40;13.90;95736.00;;;;5089955;28;20222;-86
2023/04/25 06:45:10;;;;;;;1.10;1.00;;;13.70;72.30;13.90;95742.00;;;;5084055;28;20204;-87
2023/04/25 06:47:38;;;;;;;1.70;1.40;;;13.70;72.30;13.80;95736.00;;;;5089475;28;20195;-86
2023/04/25 06:50:08;;;;;;;2.13;1.50;;;13.70;71.70;13.70;95744.00;;;;5091701;28;20206;-85
2023/04/25 06:52:36;;;;;;;1.63;1.20;;;13.70;71.90;13.60;95739.00;;;;5085122;28;20602;-84
2023/04/25 06:55:04;;;;;;;1.43;1.33;;;13.60;71.80;13.60;95737.00;;;;5085930;28;20325;-84
2023/04/25 06:57:31;;;;;;;1.50;1.13;;;13.60;71.90;13.50;95738.00;;;;5088496;28;20199;-85
2023/04/25 06:59:59;;;;;;;1.30;1.20;;;13.50;72.00;13.40;95735.00;;;;5094130;28;20244;-83
2023/04/25 07:02:26;;;;;;;1.07;0.97;;;13.50;72.40;13.30;95744.00;;;;5075037;28;20199;-84
2023/04/25 07:04:55;;;;;;;2.53;1.23;;;13.40;72.50;13.20;95740.00;;;;5089208;28;20233;-83
2023/04/25 07:07:25;;;;;;;2.03;1.23;;;13.30;72.60;13.00;95734.00;;;;5080675;28;20221;-82
2023/04/25 07:09:53;;;;;;;1.20;1.10;;;13.20;72.90;12.90;95734.00;;;;5086165;28;20570;-82
2023/04/25 07:12:20;;;;;;;1.00;0.90;;;13.10;73.10;12.70;95729.00;;;;5090468;28;20222;-81
2023/04/25 07:14:47;;;;;;;0.80;0.80;;;13.00;73.50;12.60;95726.00;;;;5089140;28;20696;-83
2023/04/25 07:17:15;;;;;;;1.13;1.10;;;12.90;74.00;12.50;95726.00;;;;5092006;28;20199;-81
2023/04/25 07:19:43;;;;;;;1.20;0.80;;;12.80;74.40;12.50;95728.00;;;;5092428;28;20215;-81
2023/04/25 07:22:10;;;;;;;1.40;1.10;;;12.70;75.00;12.50;95723.00;;;;5094733;28;20294;-81
2023/04/25 07:24:39;;;;;;;1.33;1.23;;;12.70;76.10;12.60;95719.00;;;;5096936;28;20192;-81
2023/04/25 07:27:07;;;;;;;1.60;1.20;;;12.60;75.80;12.60;95729.00;;;;5097040;28;20278;-83
2023/04/25 07:29:36;;;;;;;1.30;1.20;;;12.60;76.20;12.70;95727.00;;;;5097793;28;20202;-82
2023/04/25 07:32:04;;;;;;;1.13;1.07;;;12.60;76.70;12.90;95723.00;;;;5098635;28;20219;-82
2023/04/25 07:34:32;;;;;;;1.33;1.23;;;12.60;77.70;13.00;95727.00;;;;5097889;28;20222;-81
2023/04/25 07:37:00;;;;;;;1.70;1.30;;;12.70;78.30;13.10;95737.00;;;;5099010;28;20201;-82
2023/04/25 07:39:27;;;;;;;1.77;1.50;;;12.70;78.50;13.20;95733.00;;;;5098296;28;20210;-82
2023/04/25 07:41:58;;;;;;;1.50;1.40;;;12.80;78.70;13.30;95730.00;;;;5092024;28;20196;-82
2023/04/25 07:44:26;;;;;;;1.27;1.17;;;12.90;78.80;13.40;95731.00;;;;5092372;28;20211;-82
2023/04/25 07:46:53;;;;;;;1.53;1.13;;;13.00;78.70;13.50;95735.00;;;;5100208;28;20191;-82
2023/04/25 07:49:21;;;;;;;1.30;1.20;;;13.00;78.70;13.60;95727.00;;;;5098494;28;20755;-83
2023/04/25 07:51:48;;;;;;;1.50;1.40;;;13.10;79.10;13.70;95729.00;;;;5093492;28;20250;-82
2023/04/25 07:54:16;;;;;;;1.87;1.50;;;13.20;79.00;13.70;95727.00;;;;5099937;28;20303;-82
2023/04/25 07:56:43;;;;;;;1.50;1.40;;;13.30;78.60;13.80;95726.00;;;;5103700;28;20279;-82
2023/04/25 07:59:12;;;;;;;1.53;1.43;;;13.40;78.50;13.90;95730.00;;;;5103430;28;20227;-83
2023/04/25 08:01:40;;;;;;;1.93;1.40;;;13.50;78.70;14.00;95721.00;;;;5103243;28;20218;-82
2023/04/25 08:04:07;;;;;;;2.40;1.50;;;13.60;78.40;14.10;95720.00;;;;5100558;28;20217;-82
2023/04/25 08:06:35;;;;;;;2.20;1.40;;;13.70;78.50;14.20;95727.00;;;;5098155;28;20277;-83
2023/04/25 08:09:03;;;;;;;1.77;1.07;;;13.70;78.60;14.30;95714.00;;;;5098519;28;20210;-82
2023/04/25 08:11:31;;;;;;;1.33;1.23;;;13.90;78.90;14.50;95719.00;;;;5100943;28;20847;-83
2023/04/25 08:13:58;;;;;;;3.00;1.40;;;14.00;78.80;14.70;95720.00;;;;5095928;28;20856;-83
2023/04/25 08:16:27;;;;;;;1.50;1.40;;;14.10;78.80;14.90;95711.00;;;;5100664;28;20214;-82
2023/04/25 08:18:54;;;;;;;2.33;1.20;;;14.30;79.70;15.10;95708.00;;;;5092031;28;20304;-83
2023/04/25 08:21:25;;;;;;;1.27;1.13;;;14.40;78.80;15.20;95714.00;;;;5083194;28;20633;-83
2023/04/25 08:23:52;;;;;;;1.33;1.20;;;14.60;78.30;15.40;95711.00;;;;5099253;28;20832;-84
2023/04/25 08:26:20;;;;;;;2.80;1.80;;;14.70;77.70;15.50;95725.00;;;;5096216;28;20199;-83
2023/04/25 08:28:47;;;;;;;4.10;1.33;;;14.80;77.80;15.70;95725.00;;;;5087390;28;20196;-83
2023/04/25 08:31:15;;;;;;;1.50;1.30;;;15.00;77.70;16.00;95733.00;;;;5097721;28;20199;-83
2023/04/25 08:33:44;;;;;;;1.37;1.27;;;15.10;77.50;16.20;95732.00;;;;5099215;28;20215;-83
2023/04/25 08:36:11;;;;;;;1.50;1.40;;;15.30;77.20;16.50;95731.00;;;;5090759;28;20192;-83
2023/04/25 08:38:39;;;;;;;1.20;1.20;;;15.50;77.20;16.70;95732.00;;;;5097949;28;20218;-84
2023/04/25 08:41:07;;;;;;;1.57;1.13;;;15.70;76.70;16.80;95728.00;;;;5098049;28;20198;-84
2023/04/25 08:43:36;;;;;;;1.70;1.30;;;15.80;75.70;16.90;95727.00;;;;5098061;28;20247;-83
2023/04/25 08:46:04;;;;;;;1.50;1.27;;;15.90;75.30;17.20;95722.00;;;;5087949;28;20616;-83
2023/04/25 08:48:34;;;;;;;1.40;1.30;;;16.10;75.50;17.40;95734.00;;;;5099938;28;20227;-84
2023/04/25 08:51:08;;;;;;;1.53;1.30;;;16.30;74.50;17.60;95734.00;;;;5101411;28;20195;-84
2023/04/25 08:53:35;;;;;;;1.83;1.40;;;16.50;74.60;17.80;95727.00;;;;5093285;28;20214;-83
2023/04/25 08:56:05;;;;;;;1.77;1.30;;;16.70;74.10;18.00;95732.00;;;;5099993;28;20192;-84
2023/04/25 08:58:34;;;;;;;1.33;1.23;;;16.90;73.10;18.10;95737.00;;;;5100167;28;20223;-84
2023/04/25 09:01:02;;;;;;;1.87;1.50;;;17.00;72.90;18.10;95742.00;;;;5097252;28;20203;-84
2023/04/25 09:03:30;;;;;;;0.90;0.90;;;17.10;72.00;18.00;95746.00;;;;5069093;28;20208;-84
2023/04/25 09:05:58;;;;;;;1.30;1.07;;;17.80;70.70;17.80;95757.00;;;;5084643;28;20350;-85
2023/04/25 09:08:27;;;;;;;1.27;1.07;;;17.20;69.30;17.60;95763.00;;;;5091029;28;20286;-84
2023/04/25 09:10:54;;;;;;;1.07;0.90;;;17.20;69.10;17.30;95762.00;;;;5101010;28;20259;-84
2023/04/25 09:13:28;;;;;;;0.70;0.70;;;17.10;68.10;17.00;95764.00;;;;5105619;28;20243;-83
2023/04/25 09:15:57;;;;;;;0.70;0.70;;;17.00;67.80;16.70;95756.00;;;;5107294;28;20183;-83
2023/04/25 09:18:26;;;;;;;1.00;0.87;;;16.80;67.90;16.50;95751.00;;;;5094305;28;20252;-83
2023/04/25 09:20:54;;;;;;;0.80;0.80;;;16.60;68.20;16.30;95750.00;;;;5100589;28;20743;-84
2023/04/25 09:23:23;;;;;;;0.77;0.77;;;16.40;68.60;16.20;95747.00;;;;5098131;28;20210;-83
2023/04/25 09:25:54;;;;;;;1.17;0.80;;;16.30;68.50;16.10;95752.00;;;;5077911;28;20193;-83
2023/04/25 09:28:27;;;;;;;1.63;1.13;;;16.20;69.00;16.20;95742.00;;;;5092086;28;20197;-83
2023/04/25 09:30:58;;;;;;;0.73;0.70;;;16.10;69.70;16.40;95750.00;;;;5100517;28;20226;-84
2023/04/25 09:33:31;;;;;;;0.87;0.87;;;16.10;71.40;16.80;95749.00;;;;5094688;28;20215;-82
2023/04/25 09:36:06;;;;;;;1.20;1.00;;;16.20;73.00;17.30;95755.00;;;;5094589;28;20192;-83
2023/04/25 09:38:41;;;;;;;1.30;1.20;;;16.40;74.20;17.80;95752.00;;;;5103028;28;20610;-83
2023/04/25 09:41:12;;;;;;;2.40;1.00;;;16.60;75.40;18.40;95764.00;;;;5102950;28;20567;-82
2023/04/25 09:43:40;;;;;;;1.23;1.13;;;16.90;75.10;18.80;95753.00;;;;5093865;28;20279;-82
2023/04/25 09:46:11;;;;;;;2.67;1.10;;;17.20;74.50;19.00;95762.00;;;;5101079;28;20759;-83
2023/04/25 09:48:39;;;;;;;1.10;1.00;;;17.40;73.90;19.10;95762.00;;;;5091817;28;20225;-83
2023/04/25 09:51:09;;;;;;;0.97;0.93;;;17.60;72.20;19.00;95764.00;;;;5097973;28;20264;-84
2023/04/25 09:53:38;;;;;;;1.20;1.10;;;17.80;70.40;18.90;95765.00;;;;5090411;28;20230;-84
2023/04/25 09:56:11;;;;;;;0.90;0.90;;;17.80;69.20;18.70;95764.00;;;;5093375;28;20227;-84
2023/04/25 09:58:41;;;;;;;1.20;1.10;;;17.90;69.10;18.80;95759.00;;;;5097404;28;20260;-84
2023/04/25 10:01:10;;;;;;;1.63;1.00;;;18.00;69.40;19.10;95750.00;;;;5089267;28;20302;-84
2023/04/25 10:03:41;;;;;;;2.97;1.00;;;18.20;70.40;19.50;95750.00;;;;5088316;28;20222;-84
2023/04/25 10:06:15;;;;;;;0.90;0.90;;;18.50;71.00;19.80;95752.00;;;;5089642;28;20192;-83
2023/04/25 10:08:45;;;;;;;1.20;0.97;;;18.70;69.10;19.80;95753.00;;;;5089000;28;20187;-83
2023/04/25 10:11:16;;;;;;;1.00;0.80;;;18.90;68.50;19.90;95756.00;;;;5097158;28;20199;-84
2023/04/25 10:13:45;;;;;;;0.83;0.83;;;19.00;68.20;20.00;95759.00;;;;5097477;28;20219;-83
2023/04/25 10:16:12;;;;;;;1.43;1.00;;;19.20;67.30;20.20;95755.00;;;;5097348;28;20222;-83
2023/04/25 10:18:40;;;;;;;1.17;0.80;;;19.30;68.00;20.40;95760.00;;;;5098346;28;20629;-84
2023/04/25 10:21:08;;;;;;;0.70;0.70;;;19.50;66.50;20.40;95753.00;;;;5098012;28;20336;-84
2023/04/25 10:23:38;;;;;;;0.67;0.67;;;19.60;65.70;20.40;95754.00;;;;5097948;28;20246;-83
2023/04/25 10:26:07;;;;;;;0.90;0.90;;;19.70;64.70;20.40;95755.00;;;;5095716;28;20200;-84
2023/04/25 10:28:57;;;;;;;1.37;0.80;;;19.70;63.50;20.20;95763.00;;;;5075140;28;20587;-84
2023/04/25 10:31:25;;;;;;;1.00;0.80;;;19.70;60.60;20.20;95760.00;;;;5078657;28;20668;-84
2023/04/25 10:33:52;;;;;;;2.30;0.90;;;19.70;62.90;20.10;95759.00;;;;5093717;28;20237;-84
2023/04/25 10:36:22;;;;;;;0.97;0.90;;;19.60;61.80;19.90;95763.00;;;;5075114;28;20275;-85
2023/04/25 10:38:52;;;;;;;3.50;1.00;;;19.60;61.50;19.80;95759.00;;;;5093694;28;20191;-84
2023/04/25 10:41:22;;;;;;;1.40;1.30;;;19.50;61.20;19.70;95755.00;;;;5086318;28;20215;-85
2023/04/25 10:44:01;;;;;;;1.20;1.10;;;19.40;60.50;19.60;95751.00;;;;5094943;28;20262;-85
2023/04/25 10:46:30;;;;;;;1.00;1.00;;;19.40;59.60;19.50;95757.00;;;;5085608;28;20199;-85
2023/04/25 10:49:00;;;;;;;1.00;1.00;;;19.20;59.60;19.40;95755.00;;;;5092070;28;20199;-85
2023/04/25 10:51:30;;;;;;;1.97;1.43;;;19.10;59.30;19.30;95775.00;;;;5094183;28;20615;-85
2023/04/25 10:54:02;;;;;;;1.20;1.10;;;19.00;59.40;19.00;95776.00;;;;5092464;28;20210;-84
2023/04/25 10:56:32;;;;;;;1.07;0.97;;;18.90;59.20;18.80;95781.00;;;;5087517;28;20747;-84
2023/04/25 10:59:12;;;;;;;1.20;1.10;;;18.70;59.90;18.40;95778.00;;;;5094318;28;20191;-84